Skip Navigation Links Skip Navigation Links

Current Weather

Tweed-New Haven, New Haven, Conn.

For information only: do not use for flight planning or navigation.
Latest weather
Observation time Saturday, January 23, 2021 8:53 PM EST
Local time Saturday, January 23, 2021 9:20 PM EST
Flight conditions Visual Meteorological Conditions
Winds
Wind direction Northwest (320°)
Wind speed 13 mph
Wind gusting to 24 mph
Visibility 10 mi.
Sky condition
Ceiling unlimited
Sky clear
Temperature 26°F
Dewpoint 2°F
Altimeter 30.10 in.Hg
Derived measurements
Relative humidity 35%
Wind chill 15°F
Density altitude -2413 ft.
Sea-level pressure 30.09 in.Hg
Remarks
Automated weather observing station with precipitation discriminator.
METAR KHVN 240153Z 32011G21KT 10SM CLR M03/M17 A3010 RMK AO2 SLP191 T10331167

Settings

Location code

InnerDrive.Weather 4.0.6770.0 Release CLR 4.0.30319.42000
Copyright ©2018 Inner Drive Technology. All rights reserved. Portions Copyright ©1986-2018 David Braverman.

Find weather

Site navigation


Skip Navigation Links

Place info

Page info

PayPal - The safer, easier way to pay online!

Return home.

Copyright ©2021 Inner Drive Technology. Purveyors of fine, hand-crafted computer software. Page printed 2021-01-24T02:20:45 UTC.